createdAt,value
2023-04-18T00:00:31.245Z,3.80
2023-04-18T00:03:00.165Z,3.80
2023-04-18T00:05:29.795Z,4.40
2023-04-18T00:07:57.784Z,4.00
2023-04-18T00:10:25.225Z,4.20
2023-04-18T00:12:52.438Z,4.30
2023-04-18T00:15:20.018Z,3.90
2023-04-18T00:17:48.785Z,4.60
2023-04-18T00:20:16.200Z,4.20
2023-04-18T00:22:45.536Z,4.20
2023-04-18T00:25:13.106Z,4.10
2023-04-18T00:27:40.371Z,4.20
2023-04-18T00:30:09.223Z,5.00
2023-04-18T00:32:36.658Z,4.40
2023-04-18T00:35:04.701Z,4.50
2023-04-18T00:37:32.445Z,4.70
2023-04-18T00:39:59.603Z,4.40
2023-04-18T00:42:28.324Z,4.40
2023-04-18T00:44:56.287Z,4.50
2023-04-18T00:47:23.661Z,4.50
2023-04-18T00:49:51.921Z,5.20
2023-04-18T00:52:20.725Z,5.50
2023-04-18T00:54:48.109Z,4.70
2023-04-18T00:57:15.877Z,5.80
2023-04-18T00:59:43.272Z,5.30
2023-04-18T01:05:02.125Z,5.60
2023-04-18T01:07:31.514Z,6.00
2023-04-18T01:09:59.225Z,7.50
2023-04-18T01:12:26.456Z,5.10
2023-04-18T01:14:53.732Z,5.40
2023-04-18T01:17:23.081Z,5.70
2023-04-18T01:19:51.988Z,4.80
2023-04-18T01:22:20.398Z,5.40
2023-04-18T01:24:48.227Z,5.00
2023-04-18T01:27:17.599Z,5.10
2023-04-18T01:29:44.903Z,4.80
2023-04-18T01:32:12.200Z,4.80
2023-04-18T01:34:39.935Z,4.70
2023-04-18T01:37:07.193Z,6.20
2023-04-18T01:39:34.419Z,5.20
2023-04-18T01:42:02.909Z,4.70
2023-04-18T01:44:30.062Z,4.60
2023-04-18T01:46:57.310Z,4.40
2023-04-18T01:49:24.819Z,5.00
2023-04-18T01:51:52.114Z,4.20
2023-04-18T01:54:19.426Z,4.00
2023-04-18T01:56:46.754Z,4.60
2023-04-18T01:59:13.980Z,4.30
2023-04-18T02:01:41.343Z,3.70
2023-04-18T02:04:09.394Z,5.00
2023-04-18T02:06:36.657Z,5.60
2023-04-18T02:09:03.829Z,6.60
2023-04-18T02:11:31.685Z,7.10
2023-04-18T02:13:59.977Z,6.70
2023-04-18T02:16:27.414Z,8.00
2023-04-18T02:18:56.023Z,8.20
2023-04-18T02:21:23.380Z,7.20
2023-04-18T02:23:51.462Z,8.10
2023-04-18T02:26:18.764Z,8.50
2023-04-18T02:28:45.972Z,9.00
2023-04-18T02:31:15.370Z,8.70
2023-04-18T02:33:43.921Z,10.20
2023-04-18T02:36:13.316Z,10.80
2023-04-18T02:38:40.625Z,10.10
2023-04-18T02:41:08.816Z,10.10
2023-04-18T02:43:36.255Z,10.40
2023-04-18T02:46:03.544Z,10.40
2023-04-18T02:48:32.013Z,10.40
2023-04-18T02:51:07.517Z,10.90
2023-04-18T02:53:36.199Z,12.10
2023-04-18T02:56:03.651Z,10.70
2023-04-18T02:58:31.499Z,10.70
2023-04-18T03:00:58.959Z,10.60
2023-04-18T03:03:26.317Z,11.50
2023-04-18T03:05:53.864Z,11.90
2023-04-18T03:08:21.975Z,12.70
2023-04-18T03:10:49.154Z,11.30
2023-04-18T03:13:17.723Z,11.40
2023-04-18T03:15:45.375Z,12.20
2023-04-18T03:18:12.980Z,12.10
2023-04-18T03:20:41.443Z,13.80
2023-04-18T03:23:09.217Z,12.00
2023-04-18T03:25:36.524Z,17.60
2023-04-18T03:28:03.922Z,12.10
2023-04-18T03:30:31.484Z,13.20
2023-04-18T03:32:59.825Z,12.50
2023-04-18T03:35:27.779Z,12.70
2023-04-18T03:37:55.884Z,14.40
2023-04-18T03:40:23.019Z,13.10
2023-04-18T03:42:50.212Z,11.90
2023-04-18T03:45:19.269Z,10.50
2023-04-18T03:47:47.120Z,13.10
2023-04-18T03:50:14.458Z,12.40
2023-04-18T03:52:41.837Z,12.40
2023-04-18T03:55:09.446Z,12.60
2023-04-18T03:57:36.731Z,13.00
2023-04-18T04:00:08.743Z,13.00
2023-04-18T04:02:36.327Z,14.30
2023-04-18T04:05:05.344Z,13.20
2023-04-18T04:07:33.768Z,13.70
2023-04-18T04:10:01.238Z,13.90
2023-04-18T04:12:28.617Z,13.60
2023-04-18T04:14:56.319Z,14.10
2023-04-18T04:17:23.723Z,13.10
2023-04-18T04:19:51.799Z,13.60
2023-04-18T04:22:19.863Z,14.60
2023-04-18T04:24:47.129Z,14.50
2023-04-18T04:27:15.506Z,14.80
2023-04-18T04:29:44.681Z,13.70
2023-04-18T04:32:13.380Z,14.70
2023-04-18T04:34:41.833Z,13.30
2023-04-18T04:37:09.992Z,14.40
2023-04-18T04:39:37.281Z,14.20
2023-04-18T04:42:05.070Z,14.10
2023-04-18T04:44:32.621Z,16.20
2023-04-18T04:47:00.136Z,13.10
2023-04-18T04:49:27.276Z,15.80
2023-04-18T04:51:54.800Z,14.00
2023-04-18T04:54:22.067Z,15.60
2023-04-18T04:56:49.461Z,14.20
2023-04-18T04:59:17.019Z,14.60
2023-04-18T05:01:55.518Z,13.40
2023-04-18T05:04:23.396Z,14.50
2023-04-18T05:06:51.140Z,14.20
2023-04-18T05:09:18.415Z,14.90
2023-04-18T05:11:47.482Z,13.00
2023-04-18T05:14:14.890Z,14.00
2023-04-18T05:16:42.580Z,15.30
2023-04-18T05:19:10.815Z,14.40
2023-04-18T05:21:38.207Z,14.70
2023-04-18T05:24:05.395Z,14.60
2023-04-18T05:26:33.205Z,13.50
2023-04-18T05:29:00.425Z,14.60
2023-04-18T05:31:28.543Z,12.90
2023-04-18T05:33:56.364Z,13.50
2023-04-18T05:36:24.781Z,14.90
2023-04-18T05:38:52.893Z,14.00
2023-04-18T05:41:20.477Z,13.90
2023-04-18T05:44:01.893Z,14.40
2023-04-18T05:46:32.686Z,13.60
2023-04-18T05:49:00.149Z,12.40
2023-04-18T05:51:29.177Z,13.30
2023-04-18T05:53:56.805Z,13.70
2023-04-18T05:56:24.378Z,12.30
2023-04-18T05:58:51.981Z,16.00
2023-04-18T06:01:19.234Z,13.70
2023-04-18T06:03:47.127Z,13.50
2023-04-18T06:06:14.815Z,14.70
2023-04-18T06:08:42.633Z,14.50
2023-04-18T06:11:10.074Z,13.30
2023-04-18T06:13:37.836Z,13.80
2023-04-18T06:16:08.177Z,13.90
2023-04-18T06:18:35.665Z,12.90
2023-04-18T06:21:02.807Z,13.80
2023-04-18T06:23:30.368Z,13.40
2023-04-18T06:25:58.104Z,12.50
2023-04-18T06:28:25.981Z,13.30
2023-04-18T06:30:53.880Z,12.90
2023-04-18T06:33:21.810Z,11.70
2023-04-18T06:35:49.517Z,14.90
2023-04-18T06:38:17.178Z,13.50
2023-04-18T06:40:44.524Z,14.00
2023-04-18T06:43:12.060Z,12.90
2023-04-18T06:45:39.421Z,14.00
2023-04-18T06:48:08.174Z,13.50
2023-04-18T06:50:35.509Z,14.40
2023-04-18T06:53:03.047Z,12.80
2023-04-18T06:55:30.373Z,12.70
2023-04-18T06:57:57.907Z,11.30
2023-04-18T07:00:25.212Z,12.80
2023-04-18T07:02:52.641Z,12.70
2023-04-18T07:05:20.486Z,13.00
2023-04-18T07:07:48.194Z,13.10
2023-04-18T07:10:15.476Z,11.80
2023-04-18T07:12:43.204Z,12.00
2023-04-18T07:15:11.747Z,12.50
2023-04-18T07:17:39.026Z,11.20
2023-04-18T07:20:07.280Z,11.10
2023-04-18T07:22:35.067Z,11.10
2023-04-18T07:25:02.432Z,11.00
2023-04-18T07:27:30.149Z,11.60
2023-04-18T07:29:58.562Z,12.20
2023-04-18T07:32:25.769Z,11.90
2023-04-18T07:34:53.262Z,11.00
2023-04-18T07:37:22.146Z,11.50
2023-04-18T07:39:49.678Z,14.40
2023-04-18T07:42:16.773Z,11.70
2023-04-18T07:44:45.261Z,10.90
2023-04-18T07:47:12.960Z,10.60
2023-04-18T07:49:40.256Z,10.10
2023-04-18T07:52:08.351Z,10.20
2023-04-18T07:54:35.709Z,10.80
2023-04-18T07:57:03.162Z,10.20
2023-04-18T07:59:32.855Z,9.50
2023-04-18T08:02:00.356Z,8.70
2023-04-18T08:04:29.914Z,8.70
2023-04-18T08:06:58.414Z,9.40
2023-04-18T08:09:25.680Z,9.70
2023-04-18T08:11:56.037Z,9.80
2023-04-18T08:14:23.719Z,10.70
2023-04-18T08:16:51.311Z,10.50
2023-04-18T08:19:18.609Z,10.60
2023-04-18T08:21:46.073Z,9.90
2023-04-18T08:24:13.696Z,9.80
2023-04-18T08:26:40.934Z,9.70
2023-04-18T08:29:09.060Z,10.20
2023-04-18T08:31:36.818Z,9.90
2023-04-18T08:34:05.212Z,10.10
2023-04-18T08:36:32.663Z,10.00
2023-04-18T08:38:59.790Z,10.60
2023-04-18T08:41:29.276Z,10.40
2023-04-18T08:43:57.218Z,9.40
2023-04-18T08:46:24.770Z,10.70
2023-04-18T08:48:53.060Z,10.10
2023-04-18T08:51:20.638Z,9.20
2023-04-18T08:53:49.148Z,9.40
2023-04-18T08:56:17.145Z,10.30
2023-04-18T08:58:45.818Z,10.60
2023-04-18T09:01:14.225Z,10.00
2023-04-18T09:03:43.560Z,10.60
2023-04-18T09:06:16.453Z,9.40
2023-04-18T09:08:45.280Z,12.40
2023-04-18T09:11:29.644Z,9.30
2023-04-18T09:13:59.311Z,8.80
2023-04-18T09:16:28.198Z,9.50
2023-04-18T09:19:13.434Z,9.80
2023-04-18T09:21:44.857Z,9.60
2023-04-18T09:24:29.716Z,8.70
2023-04-18T09:27:00.237Z,8.80
2023-04-18T09:29:50.772Z,9.50
2023-04-18T09:32:29.696Z,9.40
2023-04-18T09:35:04.196Z,10.50
2023-04-18T09:37:32.064Z,8.50
2023-04-18T09:39:59.522Z,8.80
2023-04-18T09:42:28.760Z,7.80
2023-04-18T09:45:09.480Z,7.10
2023-04-18T09:47:38.205Z,6.70
2023-04-18T09:50:10.454Z,5.70
2023-04-18T09:52:40.102Z,5.60
2023-04-18T09:55:10.401Z,8.00
2023-04-18T09:57:42.219Z,5.80
2023-04-18T10:00:24.509Z,5.80
2023-04-18T10:02:56.159Z,5.00
2023-04-18T10:05:26.689Z,5.60
2023-04-18T10:07:55.146Z,5.30
2023-04-18T10:10:23.789Z,7.10
2023-04-18T10:12:54.721Z,5.30
2023-04-18T10:15:24.736Z,6.00
2023-04-18T10:18:04.352Z,6.50
2023-04-18T10:20:35.862Z,5.60
2023-04-18T10:23:32.630Z,5.60
2023-04-18T10:26:00.377Z,5.20
2023-04-18T10:28:28.723Z,5.50
2023-04-18T10:31:05.147Z,4.80
2023-04-18T10:33:34.372Z,5.70
2023-04-18T10:36:10.034Z,5.10
2023-04-18T10:38:56.549Z,5.40
2023-04-18T10:41:35.146Z,5.50
2023-04-18T10:44:15.833Z,5.40
2023-04-18T10:47:09.581Z,5.10
2023-04-18T10:49:37.340Z,3.90
2023-04-18T10:52:07.772Z,4.20
2023-04-18T10:55:04.633Z,4.90
2023-04-18T10:57:46.171Z,4.80
2023-04-18T11:00:17.522Z,4.70
2023-04-18T11:03:00.639Z,4.20
2023-04-18T11:05:30.069Z,5.30
2023-04-18T11:07:57.300Z,4.40
2023-04-18T11:10:27.211Z,5.00
2023-04-18T11:12:56.310Z,4.80
2023-04-18T11:15:25.386Z,4.70
2023-04-18T11:18:05.476Z,4.20
2023-04-18T11:20:46.472Z,4.40
2023-04-18T11:23:21.868Z,3.20
2023-04-18T11:25:52.752Z,3.00
2023-04-18T11:28:22.117Z,4.30
2023-04-18T11:30:49.627Z,2.60
2023-04-18T11:33:17.197Z,2.90
2023-04-18T11:35:46.414Z,2.80
2023-04-18T11:38:16.873Z,2.30
2023-04-18T11:40:51.572Z,4.70
2023-04-18T11:43:26.402Z,4.20
2023-04-18T11:45:59.095Z,5.40
2023-04-18T11:48:41.554Z,3.90
2023-04-18T11:51:29.699Z,3.80
2023-04-18T11:53:57.267Z,4.70
2023-04-18T11:56:24.826Z,3.60
2023-04-18T11:58:52.295Z,4.20
2023-04-18T12:01:21.850Z,3.30
2023-04-18T12:04:07.883Z,4.00
2023-04-18T12:06:52.621Z,5.10
2023-04-18T12:09:25.491Z,4.00
2023-04-18T12:12:01.492Z,3.20
2023-04-18T12:14:29.252Z,4.00
2023-04-18T12:16:56.875Z,3.20
2023-04-18T12:19:28.906Z,4.40
2023-04-18T12:22:02.117Z,3.40
2023-04-18T12:24:31.237Z,3.80
2023-04-18T12:27:00.654Z,3.40
2023-04-18T12:29:29.734Z,4.30
2023-04-18T12:31:57.340Z,4.00
2023-04-18T12:34:25.790Z,3.10
2023-04-18T12:36:54.366Z,3.20
2023-04-18T12:39:21.751Z,3.00
2023-04-18T12:41:50.021Z,5.40
2023-04-18T12:44:17.718Z,3.80
2023-04-18T12:46:45.425Z,3.50
2023-04-18T12:49:12.894Z,4.00
2023-04-18T12:51:41.032Z,5.50
2023-04-18T12:54:08.669Z,6.90
2023-04-18T12:56:36.757Z,3.50
2023-04-18T12:59:04.063Z,3.30
2023-04-18T13:01:31.409Z,3.30
2023-04-18T13:04:10.764Z,4.20
2023-04-18T13:06:40.546Z,6.70
2023-04-18T13:09:08.542Z,4.00
2023-04-18T13:11:36.144Z,4.40
2023-04-18T13:14:03.877Z,3.50
2023-04-18T13:16:31.577Z,3.30
2023-04-18T13:18:58.894Z,3.10
2023-04-18T13:21:26.635Z,2.40
2023-04-18T13:23:54.247Z,2.10
2023-04-18T13:26:21.542Z,2.00
2023-04-18T13:28:48.713Z,86.30
2023-04-18T13:31:17.197Z,38.00
2023-04-18T13:33:44.829Z,10.50
2023-04-18T13:36:12.525Z,9.70
2023-04-18T13:38:40.883Z,30.00
2023-04-18T13:41:12.830Z,32.20
2023-04-18T13:43:40.496Z,6.00
2023-04-18T13:46:07.909Z,9.90
2023-04-18T13:48:35.275Z,4.70
2023-04-18T13:51:03.206Z,9.20
2023-04-18T13:53:31.305Z,5.70
2023-04-18T13:55:59.494Z,5.80
2023-04-18T13:58:26.798Z,19.40
2023-04-18T14:00:54.710Z,7.60
2023-04-18T14:03:22.071Z,5.90
2023-04-18T14:05:49.973Z,7.10
2023-04-18T14:08:17.705Z,9.70
2023-04-18T14:10:44.883Z,10.50
2023-04-18T14:13:12.437Z,16.00
2023-04-18T14:15:39.955Z,16.20
2023-04-18T14:18:07.267Z,8.30
2023-04-18T14:20:35.745Z,7.80
2023-04-18T14:23:03.526Z,6.20
2023-04-18T14:25:31.065Z,7.30
2023-04-18T14:28:10.470Z,13.20
2023-04-18T14:30:39.185Z,7.00
2023-04-18T14:33:09.129Z,6.10
2023-04-18T14:35:37.123Z,7.70
2023-04-18T14:38:04.316Z,5.50
2023-04-18T14:40:32.822Z,11.30
2023-04-18T14:43:01.086Z,67.40
2023-04-18T14:45:28.565Z,47.00
2023-04-18T14:47:56.344Z,18.60
2023-04-18T14:50:24.213Z,10.50
2023-04-18T14:52:51.784Z,9.50
2023-04-18T14:55:22.412Z,9.20
2023-04-18T14:57:50.221Z,6.30
2023-04-18T15:00:17.859Z,17.80
2023-04-18T15:02:45.514Z,13.80
2023-04-18T15:05:13.359Z,15.20
2023-04-18T15:07:41.467Z,9.70
2023-04-18T15:10:09.420Z,10.10
2023-04-18T15:12:37.007Z,8.60
2023-04-18T15:15:04.543Z,6.20
2023-04-18T15:17:31.830Z,8.30
2023-04-18T15:20:01.075Z,6.20
2023-04-18T15:22:28.303Z,7.60
2023-04-18T15:24:55.508Z,6.80
2023-04-18T15:27:24.199Z,6.10
2023-04-18T15:29:51.708Z,6.70
2023-04-18T15:32:19.272Z,5.50
2023-04-18T15:34:46.914Z,6.20
2023-04-18T15:37:14.473Z,5.90
2023-04-18T15:39:41.722Z,5.50
2023-04-18T15:42:09.030Z,6.10
2023-04-18T15:44:36.241Z,6.90
2023-04-18T15:47:03.529Z,7.20
2023-04-18T15:49:31.388Z,6.80
2023-04-18T15:51:58.647Z,7.10
2023-04-18T15:54:25.922Z,7.50
2023-04-18T15:56:53.230Z,6.80
2023-04-18T15:59:20.866Z,7.00
2023-04-18T16:01:48.083Z,8.00
2023-04-18T16:04:16.290Z,7.10
2023-04-18T16:06:43.662Z,7.80
2023-04-18T16:09:11.043Z,7.90
2023-04-18T16:11:38.805Z,7.20
2023-04-18T16:14:06.169Z,7.10
2023-04-18T16:16:34.849Z,6.80
2023-04-18T16:19:02.615Z,8.20
2023-04-18T16:21:30.312Z,7.30
2023-04-18T16:23:57.639Z,8.60
2023-04-18T16:26:25.789Z,7.30
2023-04-18T16:28:53.444Z,7.50
2023-04-18T16:31:21.074Z,7.60
2023-04-18T16:33:48.815Z,9.50
2023-04-18T16:36:16.096Z,10.00
2023-04-18T16:38:43.417Z,9.00
2023-04-18T16:41:11.312Z,8.90
2023-04-18T16:43:39.085Z,7.40
2023-04-18T16:46:06.549Z,8.30
2023-04-18T16:48:34.257Z,7.70
2023-04-18T16:51:01.618Z,7.40
2023-04-18T16:53:29.069Z,7.10
2023-04-18T16:55:56.747Z,8.20
2023-04-18T16:58:24.306Z,7.80
2023-04-18T17:00:53.061Z,9.00
2023-04-18T17:03:21.178Z,7.30
2023-04-18T17:05:48.474Z,7.80
2023-04-18T17:08:16.634Z,7.80
2023-04-18T17:10:44.075Z,8.40
2023-04-18T17:13:11.757Z,8.80
2023-04-18T17:15:39.502Z,10.40
2023-04-18T17:18:07.393Z,11.00
2023-04-18T17:20:36.567Z,11.00
2023-04-18T17:23:04.508Z,11.00
2023-04-18T17:25:32.540Z,10.80
2023-04-18T17:28:03.144Z,11.50
2023-04-18T17:30:30.944Z,11.60
2023-04-18T17:32:59.103Z,11.60
2023-04-18T17:35:26.824Z,12.50
2023-04-18T17:37:54.869Z,11.50
2023-04-18T17:40:23.221Z,13.70
2023-04-18T17:42:51.092Z,14.70
2023-04-18T17:45:23.096Z,14.70
2023-04-18T17:47:51.528Z,11.30
2023-04-18T17:50:21.553Z,14.10
2023-04-18T17:52:51.127Z,13.10
2023-04-18T17:55:18.961Z,11.40
2023-04-18T17:57:47.549Z,12.60
2023-04-18T18:00:16.710Z,13.50
2023-04-18T18:02:46.008Z,12.40
2023-04-18T18:05:14.593Z,13.10
2023-04-18T18:07:44.402Z,13.90
2023-04-18T18:10:13.391Z,12.10
2023-04-18T18:12:41.911Z,13.70
2023-04-18T18:15:10.307Z,12.20
2023-04-18T18:17:39.036Z,10.90
2023-04-18T18:20:11.229Z,13.50
2023-04-18T18:22:39.017Z,12.70
2023-04-18T18:25:08.710Z,11.70
2023-04-18T18:27:37.487Z,11.40
2023-04-18T18:30:06.418Z,12.70
2023-04-18T18:32:35.949Z,12.40
2023-04-18T18:35:05.117Z,12.10
2023-04-18T18:37:33.578Z,13.00
2023-04-18T18:40:07.109Z,16.70
2023-04-18T18:42:35.681Z,12.90
2023-04-18T18:45:04.410Z,15.30
2023-04-18T18:47:37.429Z,12.40
2023-04-18T18:50:08.683Z,12.30
2023-04-18T18:52:37.200Z,12.80
2023-04-18T18:55:06.144Z,16.80
2023-04-18T18:57:35.550Z,13.50
2023-04-18T19:00:04.048Z,17.50
2023-04-18T19:02:33.441Z,14.40
2023-04-18T19:05:05.022Z,19.80
2023-04-18T19:07:34.022Z,15.60
2023-04-18T19:10:02.923Z,19.40
2023-04-18T19:12:30.784Z,21.70
2023-04-18T19:15:00.646Z,21.10
2023-04-18T19:17:30.254Z,19.20
2023-04-18T19:20:00.252Z,19.00
2023-04-18T19:22:35.205Z,17.10
2023-04-18T19:25:05.946Z,17.30
2023-04-18T19:27:34.645Z,15.60
2023-04-18T19:30:03.712Z,14.10
2023-04-18T19:32:33.137Z,15.10
2023-04-18T19:35:02.539Z,13.10
2023-04-18T19:37:30.925Z,17.80
2023-04-18T19:39:59.061Z,14.10
2023-04-18T19:42:28.481Z,13.20
2023-04-18T19:44:57.668Z,13.10
2023-04-18T19:47:26.115Z,12.10
2023-04-18T19:49:54.782Z,12.80
2023-04-18T19:52:22.585Z,12.00
2023-04-18T19:54:50.479Z,11.00
2023-04-18T19:57:18.770Z,11.20
2023-04-18T19:59:48.097Z,10.70
2023-04-18T20:02:16.426Z,11.30
2023-04-18T20:04:45.431Z,12.40
2023-04-18T20:07:13.347Z,12.60
2023-04-18T20:09:42.393Z,11.50
2023-04-18T20:12:12.200Z,11.80
2023-04-18T20:14:40.488Z,14.30
2023-04-18T20:17:07.844Z,11.60
2023-04-18T20:19:36.601Z,12.50
2023-04-18T20:22:04.790Z,12.60
2023-04-18T20:24:38.839Z,11.30
2023-04-18T20:27:06.823Z,10.40
2023-04-18T20:29:38.758Z,12.10
2023-04-18T20:32:07.624Z,11.10
2023-04-18T20:34:36.994Z,11.30
2023-04-18T20:37:08.456Z,14.20
2023-04-18T20:39:38.679Z,13.00
2023-04-18T20:42:06.316Z,13.10
2023-04-18T20:44:35.747Z,15.60
2023-04-18T20:47:03.617Z,14.00
2023-04-18T20:49:31.908Z,13.90
2023-04-18T20:51:59.646Z,13.30
2023-04-18T20:54:27.277Z,14.00
2023-04-18T20:56:54.782Z,13.00
2023-04-18T20:59:22.371Z,12.90
2023-04-18T21:01:50.135Z,12.50
2023-04-18T21:04:17.851Z,15.80
2023-04-18T21:06:45.491Z,13.60
2023-04-18T21:09:13.288Z,13.90
2023-04-18T21:11:40.874Z,13.70
2023-04-18T21:14:08.263Z,20.00
2023-04-18T21:16:37.695Z,15.00
2023-04-18T21:19:06.509Z,12.70
2023-04-18T21:21:34.788Z,14.30
2023-04-18T21:24:03.118Z,14.70
2023-04-18T21:26:31.171Z,14.00
2023-04-18T21:29:00.655Z,17.10
2023-04-18T21:31:30.683Z,17.50
2023-04-18T21:34:00.925Z,17.70
2023-04-18T21:36:30.006Z,17.80
2023-04-18T21:38:59.543Z,17.50
2023-04-18T21:41:27.219Z,17.20
2023-04-18T21:43:54.527Z,20.00
2023-04-18T21:46:21.937Z,22.70
2023-04-18T21:48:49.807Z,20.00
2023-04-18T21:51:17.660Z,18.60
2023-04-18T21:53:45.228Z,27.30
2023-04-18T21:56:13.020Z,18.90
2023-04-18T21:58:40.271Z,20.10
2023-04-18T22:01:08.570Z,21.20
2023-04-18T22:03:37.418Z,20.70
2023-04-18T22:06:05.085Z,19.50
2023-04-18T22:08:32.830Z,24.30
2023-04-18T22:11:00.817Z,19.80
2023-04-18T22:13:33.414Z,23.60
2023-04-18T22:16:05.189Z,23.70
2023-04-18T22:18:37.983Z,23.60
2023-04-18T22:21:06.438Z,23.70
2023-04-18T22:23:33.685Z,26.10
2023-04-18T22:26:01.200Z,27.90
2023-04-18T22:28:28.983Z,26.60
2023-04-18T22:30:56.509Z,29.00
2023-04-18T22:33:24.168Z,36.90
2023-04-18T22:35:52.178Z,29.90
2023-04-18T22:38:19.429Z,30.50
2023-04-18T22:40:46.690Z,28.50
2023-04-18T22:43:14.040Z,29.00
2023-04-18T22:45:41.494Z,33.80
2023-04-18T22:48:11.914Z,28.50
2023-04-18T22:50:43.250Z,26.80
2023-04-18T22:53:11.418Z,30.60
2023-04-18T22:55:40.760Z,33.80
2023-04-18T22:58:09.113Z,30.30
2023-04-18T23:00:36.689Z,30.50
2023-04-18T23:03:04.438Z,27.50
2023-04-18T23:05:32.679Z,28.40
2023-04-18T23:08:00.612Z,31.60
2023-04-18T23:10:28.281Z,29.00
2023-04-18T23:12:55.620Z,26.50
2023-04-18T23:15:23.264Z,28.00
2023-04-18T23:17:53.454Z,29.80
2023-04-18T23:20:22.135Z,28.40
2023-04-18T23:22:52.013Z,27.20
2023-04-18T23:25:20.128Z,28.10
2023-04-18T23:27:48.448Z,27.20
2023-04-18T23:30:15.845Z,27.30
2023-04-18T23:32:43.194Z,28.50
2023-04-18T23:35:11.653Z,26.00
2023-04-18T23:37:39.017Z,27.90
2023-04-18T23:40:07.115Z,27.90
2023-04-18T23:42:37.810Z,26.50
2023-04-18T23:45:06.304Z,31.40
2023-04-18T23:47:33.437Z,28.70
2023-04-18T23:50:00.785Z,26.50
2023-04-18T23:52:28.097Z,27.70
2023-04-18T23:54:55.986Z,33.70
2023-04-18T23:57:23.352Z,30.40
2023-04-18T23:59:50.578Z,27.70
